createdAt,value
2023-03-22T00:01:17.786Z,11.53
2023-03-22T00:03:45.689Z,11.52
2023-03-22T00:06:14.088Z,11.52
2023-03-22T00:08:41.833Z,11.58
2023-03-22T00:11:09.686Z,11.51
2023-03-22T00:13:37.939Z,11.41
2023-03-22T00:16:07.962Z,11.20
2023-03-22T00:18:35.865Z,10.86
2023-03-22T00:21:03.970Z,10.81
2023-03-22T00:23:31.939Z,10.73
2023-03-22T00:25:59.537Z,10.56
2023-03-22T00:28:27.291Z,10.30
2023-03-22T00:30:56.812Z,10.19
2023-03-22T00:33:30.078Z,9.86
2023-03-22T00:36:00.721Z,9.78
2023-03-22T00:38:44.995Z,9.69
2023-03-22T00:41:14.602Z,9.51
2023-03-22T00:43:42.459Z,9.49
2023-03-22T00:46:10.769Z,9.33
2023-03-22T00:48:40.670Z,9.44
2023-03-22T00:51:09.789Z,9.46
2023-03-22T00:53:42.330Z,9.50
2023-03-22T00:56:13.641Z,9.41
2023-03-22T00:58:46.456Z,9.40
2023-03-22T01:01:15.164Z,9.49
2023-03-22T01:03:49.960Z,9.63
2023-03-22T01:06:17.865Z,9.70
2023-03-22T01:08:46.608Z,9.71
2023-03-22T01:11:18.152Z,9.77
2023-03-22T01:13:48.085Z,9.87
2023-03-22T01:16:15.775Z,9.94
2023-03-22T01:18:45.087Z,10.00
2023-03-22T01:21:13.405Z,10.05
2023-03-22T01:23:41.608Z,10.06
2023-03-22T01:26:09.240Z,10.03
2023-03-22T01:28:37.614Z,9.84
2023-03-22T01:31:05.675Z,9.63
2023-03-22T01:33:33.457Z,9.40
2023-03-22T01:36:02.450Z,9.22
2023-03-22T01:38:31.007Z,8.95
2023-03-22T01:41:00.893Z,8.73
2023-03-22T01:43:32.173Z,8.63
2023-03-22T01:46:00.516Z,8.47
2023-03-22T01:48:34.481Z,8.43
2023-03-22T01:51:09.220Z,8.54
2023-03-22T01:54:01.540Z,8.62
2023-03-22T01:56:32.518Z,8.57
2023-03-22T01:59:01.701Z,8.48
2023-03-22T02:01:40.815Z,8.44
2023-03-22T02:04:12.244Z,8.37
2023-03-22T02:06:42.328Z,8.34
2023-03-22T02:09:18.322Z,8.40
2023-03-22T02:11:53.399Z,8.42
2023-03-22T02:14:39.738Z,8.51
2023-03-22T02:17:35.977Z,8.55
2023-03-22T02:20:31.386Z,8.55
2023-03-22T02:23:34.133Z,8.53
2023-03-22T02:26:39.186Z,8.53
2023-03-22T02:29:14.089Z,8.57
2023-03-22T02:32:11.633Z,8.59
2023-03-22T02:35:06.330Z,8.66
2023-03-22T02:38:23.146Z,8.63
2023-03-22T02:40:56.193Z,8.60
2023-03-22T02:43:38.280Z,8.59
2023-03-22T02:46:11.039Z,8.56
2023-03-22T02:48:44.080Z,8.56
2023-03-22T02:51:18.519Z,8.57
2023-03-22T02:53:51.991Z,8.53
2023-03-22T02:56:25.395Z,8.54
2023-03-22T02:58:56.457Z,8.52
2023-03-22T03:01:28.503Z,8.52
2023-03-22T03:04:01.057Z,8.46
2023-03-22T03:06:33.651Z,8.49
2023-03-22T03:09:04.988Z,8.50
2023-03-22T03:11:34.404Z,8.47
2023-03-22T03:14:02.168Z,8.47
2023-03-22T03:16:35.036Z,8.44
2023-03-22T03:19:11.772Z,8.42
2023-03-22T03:21:48.150Z,8.43
2023-03-22T03:24:24.230Z,8.44
2023-03-22T03:27:01.592Z,8.39
2023-03-22T03:29:38.841Z,8.33
2023-03-22T03:32:11.099Z,8.26
2023-03-22T03:34:49.823Z,8.25
2023-03-22T03:37:21.896Z,8.18
2023-03-22T03:39:55.593Z,8.13
2023-03-22T03:42:28.305Z,7.94
2023-03-22T03:44:57.270Z,7.65
2023-03-22T03:47:26.431Z,7.48
2023-03-22T03:49:54.196Z,7.28
2023-03-22T03:52:24.605Z,7.10
2023-03-22T03:54:52.696Z,7.00
2023-03-22T03:57:28.628Z,6.94
2023-03-22T03:59:56.400Z,6.94
2023-03-22T04:02:41.477Z,6.91
2023-03-22T04:05:17.282Z,6.80
2023-03-22T04:07:45.121Z,6.71
2023-03-22T04:10:13.386Z,6.65
2023-03-22T04:12:42.891Z,6.61
2023-03-22T04:15:17.131Z,6.65
2023-03-22T04:17:49.469Z,6.63
2023-03-22T04:20:18.759Z,6.63
2023-03-22T04:22:48.410Z,6.74
2023-03-22T04:25:18.187Z,6.82
2023-03-22T04:27:57.337Z,6.94
2023-03-22T04:30:27.586Z,6.98
2023-03-22T04:33:15.221Z,7.01
2023-03-22T04:36:02.492Z,7.06
2023-03-22T04:38:37.315Z,7.07
2023-03-22T04:41:05.554Z,7.13
2023-03-22T04:43:39.746Z,7.21
2023-03-22T04:46:12.595Z,7.21
2023-03-22T04:48:47.311Z,7.20
2023-03-22T04:51:15.426Z,7.15
2023-03-22T04:54:00.347Z,7.10
2023-03-22T04:56:28.089Z,7.03
2023-03-22T04:58:57.253Z,6.99
2023-03-22T05:01:25.100Z,7.01
2023-03-22T05:04:02.118Z,6.92
2023-03-22T05:06:32.628Z,6.83
2023-03-22T05:09:08.078Z,6.62
2023-03-22T05:11:36.307Z,6.48
2023-03-22T05:14:23.961Z,6.30
2023-03-22T05:16:52.078Z,6.03
2023-03-22T05:19:22.315Z,5.91
2023-03-22T05:21:58.683Z,5.70
2023-03-22T05:24:39.366Z,5.79
2023-03-22T05:27:11.024Z,5.74
2023-03-22T05:29:45.022Z,5.80
2023-03-22T05:32:25.483Z,5.78
2023-03-22T05:34:54.784Z,5.81
2023-03-22T05:37:30.070Z,5.85
2023-03-22T05:39:59.868Z,5.92
2023-03-22T05:42:36.427Z,6.04
2023-03-22T05:45:15.270Z,6.08
2023-03-22T05:47:45.797Z,6.10
2023-03-22T05:50:20.290Z,6.13
2023-03-22T05:52:50.451Z,6.16
2023-03-22T05:55:24.210Z,6.15
2023-03-22T05:57:56.710Z,6.15
2023-03-22T06:00:31.857Z,6.13
2023-03-22T06:03:18.500Z,6.01
2023-03-22T06:05:54.656Z,6.06
2023-03-22T06:08:30.804Z,6.12
2023-03-22T06:10:59.490Z,6.12
2023-03-22T06:13:27.444Z,6.16
2023-03-22T06:15:57.522Z,6.26
2023-03-22T06:18:26.666Z,6.34
2023-03-22T06:21:02.741Z,6.40
2023-03-22T06:23:30.565Z,6.50
2023-03-22T06:25:58.183Z,6.70
2023-03-22T06:28:29.873Z,6.87
2023-03-22T06:31:07.358Z,7.01
2023-03-22T06:33:55.899Z,7.12
2023-03-22T06:36:32.386Z,7.26
2023-03-22T06:39:13.219Z,7.38
2023-03-22T06:41:44.314Z,7.45
2023-03-22T06:44:12.428Z,7.50
2023-03-22T06:47:01.684Z,7.73
2023-03-22T06:49:46.881Z,7.96
2023-03-22T06:52:20.972Z,8.10
2023-03-22T06:54:48.594Z,8.28
2023-03-22T06:57:16.479Z,8.45
2023-03-22T06:59:44.173Z,8.62
2023-03-22T07:02:14.033Z,8.83
2023-03-22T07:04:48.401Z,9.01
2023-03-22T07:07:16.380Z,9.20
2023-03-22T07:09:44.028Z,9.43
2023-03-22T07:12:13.380Z,9.73
2023-03-22T07:14:41.337Z,9.93
2023-03-22T07:17:23.311Z,10.25
2023-03-22T07:19:51.073Z,10.49
2023-03-22T07:22:22.138Z,10.74
2023-03-22T07:24:57.621Z,10.89
2023-03-22T07:27:28.463Z,11.04
2023-03-22T07:29:56.729Z,11.15
2023-03-22T07:32:25.990Z,11.42
2023-03-22T07:35:04.532Z,11.58
2023-03-22T07:37:32.290Z,11.77
2023-03-22T07:39:59.932Z,11.94
2023-03-22T07:42:31.326Z,12.19
2023-03-22T07:45:28.272Z,12.32
2023-03-22T07:48:16.594Z,12.42
2023-03-22T07:50:58.566Z,12.49
2023-03-22T07:53:27.789Z,12.80
2023-03-22T07:55:55.596Z,12.80
2023-03-22T07:58:23.350Z,12.91
2023-03-22T08:00:51.214Z,13.17
2023-03-22T08:03:49.606Z,13.24
2023-03-22T08:06:47.410Z,13.38
2023-03-22T08:09:15.170Z,13.31
2023-03-22T08:11:42.830Z,13.57
2023-03-22T08:14:11.036Z,13.83
2023-03-22T08:16:41.538Z,13.86
2023-03-22T08:19:10.788Z,14.19
2023-03-22T08:21:39.329Z,14.30
2023-03-22T08:24:14.160Z,14.56
2023-03-22T08:26:50.635Z,14.88
2023-03-22T08:29:28.870Z,14.95
2023-03-22T08:32:02.012Z,15.02
2023-03-22T08:34:31.634Z,15.17
2023-03-22T08:36:59.233Z,15.08
2023-03-22T08:39:27.244Z,15.21
2023-03-22T08:42:07.070Z,15.32
2023-03-22T08:44:36.897Z,15.49
2023-03-22T08:47:06.580Z,15.73
2023-03-22T08:49:36.454Z,15.85
2023-03-22T08:52:11.938Z,15.93
2023-03-22T08:55:03.163Z,15.86
2023-03-22T08:57:50.486Z,16.42
2023-03-22T09:00:42.252Z,16.50
2023-03-22T09:03:19.027Z,16.31
2023-03-22T09:05:48.231Z,15.75
2023-03-22T09:08:19.470Z,15.53
2023-03-22T09:10:52.200Z,16.26
2023-03-22T09:13:22.680Z,16.15
2023-03-22T09:15:55.658Z,16.09
2023-03-22T09:18:26.962Z,16.31
2023-03-22T09:20:59.060Z,16.42
2023-03-22T09:23:34.189Z,16.71
2023-03-22T09:26:03.699Z,17.20
2023-03-22T09:28:32.918Z,17.26
2023-03-22T09:31:07.304Z,17.57
2023-03-22T09:33:36.767Z,17.72
2023-03-22T09:36:07.038Z,17.93
2023-03-22T09:38:36.347Z,17.87
2023-03-22T09:41:08.031Z,17.85
2023-03-22T09:43:40.952Z,18.13
2023-03-22T09:46:14.996Z,18.04
2023-03-22T09:48:44.165Z,17.95
2023-03-22T09:51:28.763Z,18.26
2023-03-22T09:53:56.490Z,18.29
2023-03-22T09:56:26.735Z,18.78
2023-03-22T09:59:00.268Z,19.01
2023-03-22T10:01:37.259Z,19.24
2023-03-22T10:04:26.240Z,19.20
2023-03-22T10:07:07.833Z,19.07
2023-03-22T10:09:46.080Z,19.12
2023-03-22T10:12:21.509Z,19.02
2023-03-22T10:14:52.401Z,18.82
2023-03-22T10:17:26.362Z,18.75
2023-03-22T10:19:58.048Z,18.88
2023-03-22T10:22:31.855Z,19.33
2023-03-22T10:25:01.884Z,19.86
2023-03-22T10:27:30.983Z,19.10
2023-03-22T10:30:03.994Z,18.93
2023-03-22T10:32:54.685Z,18.74
2023-03-22T10:35:24.422Z,18.64
2023-03-22T10:37:55.652Z,18.26
2023-03-22T10:40:27.187Z,18.07
2023-03-22T10:42:57.829Z,18.54
2023-03-22T10:45:27.277Z,19.53
2023-03-22T10:48:00.810Z,20.26
2023-03-22T10:50:33.042Z,20.72
2023-03-22T10:53:05.541Z,20.66
2023-03-22T10:55:33.599Z,20.11
2023-03-22T10:58:13.281Z,19.39
2023-03-22T11:00:47.197Z,19.58
2023-03-22T11:03:28.417Z,18.90
2023-03-22T11:06:01.501Z,19.11
2023-03-22T11:08:30.536Z,19.33
2023-03-22T11:11:00.278Z,20.08
2023-03-22T11:13:28.783Z,20.13
2023-03-22T11:16:02.171Z,20.72
2023-03-22T11:18:32.634Z,20.94
2023-03-22T11:21:05.386Z,20.43
2023-03-22T11:23:38.555Z,19.71
2023-03-22T11:26:10.428Z,20.41
2023-03-22T11:28:42.950Z,21.47
2023-03-22T11:31:12.532Z,21.07
2023-03-22T11:33:54.488Z,20.72
2023-03-22T11:36:23.021Z,20.31
2023-03-22T11:38:58.493Z,20.26
2023-03-22T11:41:28.274Z,21.13
2023-03-22T11:43:59.348Z,20.76
2023-03-22T11:46:27.075Z,21.07
2023-03-22T11:49:01.113Z,20.98
2023-03-22T11:51:33.501Z,21.08
2023-03-22T11:54:07.828Z,21.50
2023-03-22T11:56:36.056Z,21.31
2023-03-22T11:59:07.811Z,20.48
2023-03-22T12:01:39.924Z,20.83
2023-03-22T12:04:12.094Z,20.37
2023-03-22T12:06:42.080Z,20.98
2023-03-22T12:09:23.209Z,20.70
2023-03-22T12:11:54.103Z,21.22
2023-03-22T12:14:25.834Z,21.53
2023-03-22T12:16:58.415Z,21.28
2023-03-22T12:19:42.833Z,21.53
2023-03-22T12:22:13.821Z,20.99
2023-03-22T12:24:43.182Z,20.95
2023-03-22T12:27:18.171Z,21.32
2023-03-22T12:29:52.506Z,21.38
2023-03-22T12:32:26.241Z,20.84
2023-03-22T12:35:01.378Z,20.49
2023-03-22T12:37:40.298Z,20.15
2023-03-22T12:40:21.650Z,20.05
2023-03-22T12:43:00.379Z,19.55
2023-03-22T12:45:32.751Z,20.01
2023-03-22T12:48:07.086Z,19.43
2023-03-22T12:50:38.657Z,19.36
2023-03-22T12:53:06.953Z,19.85
2023-03-22T12:55:39.833Z,19.85
2023-03-22T12:58:08.952Z,19.83
2023-03-22T13:00:41.655Z,20.12
2023-03-22T13:03:24.196Z,20.15
2023-03-22T13:06:01.837Z,20.14
2023-03-22T13:09:13.098Z,19.46
2023-03-22T13:11:41.087Z,20.03
2023-03-22T13:14:08.915Z,20.20
2023-03-22T13:16:51.959Z,20.45
2023-03-22T13:19:30.352Z,21.04
2023-03-22T13:22:20.976Z,20.52
2023-03-22T13:25:17.081Z,21.01
2023-03-22T13:27:53.820Z,20.70
2023-03-22T13:30:26.967Z,20.71
2023-03-22T13:32:58.210Z,21.31
2023-03-22T13:35:28.679Z,21.49
2023-03-22T13:38:02.866Z,20.41
2023-03-22T13:40:37.718Z,20.47
2023-03-22T13:43:14.392Z,20.23
2023-03-22T13:46:03.474Z,19.74
2023-03-22T13:48:41.044Z,19.81
2023-03-22T13:51:13.133Z,19.37
2023-03-22T13:53:45.720Z,19.35
2023-03-22T13:56:15.480Z,19.70
2023-03-22T13:58:53.895Z,19.94
2023-03-22T14:01:29.596Z,19.89
2023-03-22T14:04:01.316Z,20.05
2023-03-22T14:06:33.650Z,20.31
2023-03-22T14:09:06.104Z,20.50
2023-03-22T14:11:44.974Z,20.42
2023-03-22T14:14:17.005Z,20.08
2023-03-22T14:16:48.099Z,19.94
2023-03-22T14:19:21.169Z,19.38
